Time;durP1;ratioP1;P1;durP2;ratioP2;P2;SDS_P1;SDS_P2;PMS_P1;PMS_P2;Temp;Humidity;BMP_temperature;BMP_pressure;BME280_temperature;BME280_humidity;BME280_pressure;Samples;Min_cycle;Max_cycle;Signal;HPM_P1;HPM_P2
2023/05/10 00:05:50;;;;;;;16.52;11.27;;;;;;;;;;6149891;23;20461;-91
2023/05/10 00:22:59;;;;;;;16.70;10.75;;;;;;;;;;6186391;23;20020;-93
2023/05/10 00:26:26;;;;;;;;;;;;;;;;;;;;;
2023/05/10 00:29:28;;;;;;;16.95;10.00;;;;;;;;;;6191505;23;20351;-95
2023/05/10 00:35:53;;;;;;;;;;;;;;;;;;;;;
2023/05/10 00:39:03;;;;;;;17.80;10.93;;;;;;;;;;6130881;23;20068;-96
2023/05/10 00:42:11;;;;;;;16.77;10.68;;;;;;;;;;6110087;23;20024;-93
2023/05/10 00:45:12;;;;;;;17.55;10.55;;;;;;;;;;6110173;23;20108;-94
2023/05/10 00:51:42;;;;;;;19.75;9.90;;;;;;;;;;6190610;23;20104;-93
2023/05/10 00:55:05;;;;;;;;;;;;;;;;;;;;;
2023/05/10 00:57:48;;;;;;;16.13;9.82;;;;;;;;;;6113715;23;20100;-91
2023/05/10 01:00:34;;;;;;;19.42;10.70;;;;;;;;;;6126595;23;20020;-92
2023/05/10 01:03:29;;;;;;;14.32;9.52;;;;;;;;;;6107664;23;20041;-91
2023/05/10 01:09:28;;;;;;;18.17;9.52;;;;;;;;;;6064091;23;20081;-93
2023/05/10 01:12:23;;;;;;;18.10;10.18;;;;;;;;;;6072986;23;20013;-92
2023/05/10 01:15:09;;;;;;;15.70;9.85;;;;;;;;;;6073914;23;20022;-91
2023/05/10 01:18:33;;;;;;;18.63;10.90;;;;;;;;;;6108558;23;20069;-93
2023/05/10 01:26:28;;;;;;;;;;;;;;;;;;;;;
2023/05/10 01:32:22;;;;;;;;;;;;;;;;;;;;;
2023/05/10 01:35:53;;;;;;;20.08;10.55;;;;;;;;;;5924335;24;20364;-95
2023/05/10 01:43:09;;;;;;;;;;;;;;;;;;;;;
2023/05/10 01:52:58;;;;;;;24.40;12.93;;;;;;;;;;5996142;23;20022;-91
2023/05/10 01:56:29;;;;;;;;;;;;;;;;;;;;;
2023/05/10 02:02:57;;;;;;;21.48;13.40;;;;;;;;;;6118367;23;20021;-93
2023/05/10 02:09:28;;;;;;;23.23;12.63;;;;;;;;;;6020725;23;20083;-92
2023/05/10 02:12:21;;;;;;;21.92;12.57;;;;;;;;;;6042939;23;20018;-94
2023/05/10 02:15:11;;;;;;;21.73;12.23;;;;;;;;;;6142740;23;20021;-92
2023/05/10 02:18:11;;;;;;;22.25;12.65;;;;;;;;;;6162145;23;20092;-92
2023/05/10 02:21:10;;;;;;;25.05;13.23;;;;;;;;;;6162341;23;20063;-92
2023/05/10 02:24:20;;;;;;;25.35;13.10;;;;;;;;;;6162900;23;20148;-93
2023/05/10 02:27:14;;;;;;;23.35;13.55;;;;;;;;;;6162610;23;20011;-94
2023/05/10 02:30:02;;;;;;;22.90;12.88;;;;;;;;;;6162530;23;20459;-92
2023/05/10 02:32:49;;;;;;;25.10;12.63;;;;;;;;;;6162562;23;20039;-91
2023/05/10 02:35:38;;;;;;;21.50;12.88;;;;;;;;;;6161516;23;20020;-93
2023/05/10 02:38:23;;;;;;;26.30;13.23;;;;;;;;;;6162151;23;20047;-93
2023/05/10 02:41:10;;;;;;;25.33;13.02;;;;;;;;;;6162251;23;20012;-92
2023/05/10 02:44:00;;;;;;;23.77;12.65;;;;;;;;;;6162517;23;20088;-94
2023/05/10 02:47:02;;;;;;;;;;;;;;;;;;;;;
2023/05/10 02:49:59;;;;;;;29.38;13.63;;;;;;;;;;6184036;23;20534;-94
2023/05/10 02:53:18;;;;;;;27.70;14.07;;;;;;;;;;6161961;23;20012;-93
2023/05/10 02:56:25;;;;;;;30.48;14.55;;;;;;;;;;6162703;23;20502;-95
2023/05/10 02:59:20;;;;;;;32.28;15.77;;;;;;;;;;6162532;23;20151;-93
2023/05/10 03:02:05;;;;;;;31.75;15.60;;;;;;;;;;6162881;23;20104;-92
2023/05/10 03:05:31;;;;;;;35.05;16.52;;;12.70;99.90;;;;;;6152642;23;20024;-94
2023/05/10 03:12:16;;;;;;;31.05;15.48;;;12.70;99.90;;;;;;6149309;23;20060;-94
2023/05/10 03:25:28;;;;;;;31.27;15.32;;;;;;;;;;6063578;23;20025;-94
2023/05/10 03:28:23;;;;;;;29.05;15.85;;;;;;;;;;6130655;23;20350;-93
2023/05/10 03:31:15;;;;;;;27.85;14.75;;;;;;;;;;6131946;23;20148;-92
2023/05/10 03:34:07;;;;;;;33.75;17.25;;;;;;;;;;6132693;23;20012;-94
2023/05/10 03:36:52;;;;;;;29.08;15.07;;;;;;;;;;6129839;23;20016;-91
2023/05/10 03:39:39;;;;;;;26.05;13.60;;;;;;;;;;6151902;23;20016;-92
2023/05/10 03:43:13;;;;;;;26.08;14.63;;;;;;;;;;6131381;23;20079;-94
2023/05/10 03:46:00;;;;;;;25.95;13.93;;;;;;;;;;6152978;23;20044;-94
2023/05/10 03:49:08;;;;;;;28.77;14.23;;;;;;;;;;6130353;23;20037;-93
2023/05/10 03:55:14;;;;;;;28.30;15.18;;;;;;;;;;6134878;23;20648;-95
2023/05/10 03:58:22;;;;;;;27.52;14.27;;;;;;;;;;6132632;23;20016;-93
2023/05/10 04:01:18;;;;;;;26.02;13.88;;;;;;;;;;6132350;23;20048;-94
2023/05/10 04:04:11;;;;;;;20.88;12.55;;;;;;;;;;6140065;23;20020;-93
2023/05/10 04:07:29;;;;;;;20.05;12.15;;;;;;;;;;6162429;23;20064;-92
2023/05/10 04:10:17;;;;;;;17.70;11.20;;;;;;;;;;6158078;23;20391;-94
2023/05/10 04:13:30;;;;;;;19.65;11.05;;;;;;;;;;6162245;23;20059;-92
2023/05/10 04:16:18;;;;;;;18.48;11.15;;;;;;;;;;6162583;23;20011;-95
2023/05/10 04:19:11;;;;;;;20.30;11.50;;;;;;;;;;6162541;23;20024;-93
2023/05/10 04:22:02;;;;;;;21.80;12.73;;;;;;;;;;6161928;23;20092;-94
2023/05/10 04:24:47;;;;;;;18.98;10.57;;;;;;;;;;6162193;23;20259;-93
2023/05/10 04:27:31;;;;;;;19.40;12.15;;;;;;;;;;6162348;23;20016;-95
2023/05/10 04:30:19;;;;;;;20.42;11.20;;;;;;;;;;6162164;23;20343;-94
2023/05/10 04:33:09;;;;;;;18.10;10.90;;;;;;;;;;6164404;23;20011;-93
2023/05/10 04:35:54;;;;;;;16.63;10.93;;;;;;;;;;6170718;23;20071;-93
2023/05/10 04:38:38;;;;;;;22.42;11.73;;;;;;;;;;6168527;23;20020;-95
2023/05/10 04:41:32;;;;;;;17.58;10.55;;;;;;;;;;6176807;23;20020;-94
2023/05/10 04:44:20;;;;;;;16.52;10.75;;;;;;;;;;6181508;23;20015;-92
2023/05/10 04:47:05;;;;;;;14.18;10.20;;;;;;;;;;6202095;23;20112;-93
2023/05/10 04:49:52;;;;;;;12.45;9.32;;;;;;;;;;6187208;23;20079;-92
2023/05/10 04:52:36;;;;;;;16.15;11.48;;;;;;;;;;6187510;23;20019;-87
2023/05/10 04:55:27;;;;;;;15.07;10.32;;;;;;;;;;6187001;23;20016;-94
2023/05/10 04:58:12;;;;;;;13.32;9.43;;;;;;;;;;6172992;23;20450;-93
2023/05/10 05:01:08;;;;;;;15.20;9.82;;;;;;;;;;6166375;23;20024;-95
2023/05/10 05:03:53;;;;;;;14.30;9.75;;;;;;;;;;6165450;23;20044;-94
2023/05/10 05:06:40;;;;;;;13.10;9.23;;;;;;;;;;6167456;23;20012;-91
2023/05/10 05:12:41;;;;;;;11.20;8.02;;;;;;;;;;6167344;23;20020;-94
2023/05/10 05:15:35;;;;;;;12.55;8.93;;;;;;;;;;6173349;23;20016;-94
2023/05/10 05:18:22;;;;;;;11.68;8.57;;;;;;;;;;6174413;23;20016;-94
2023/05/10 05:21:17;;;;;;;13.20;8.10;;;;;;;;;;6163526;23;20060;-95
2023/05/10 05:24:12;;;;;;;10.05;7.25;;;;;;;;;;6163176;23;20047;-96
2023/05/10 05:27:00;;;;;;;11.38;8.00;;;;;;;;;;6163193;23;20012;-93
2023/05/10 05:29:55;;;;;;;;;;;;;;;;;;;;;
2023/05/10 05:36:03;;;;;;;11.55;7.70;;;;;;;;;;6176142;23;20028;-93
2023/05/10 05:38:48;;;;;;;13.85;7.97;;;;;;;;;;6172322;23;20067;-95
2023/05/10 05:41:35;;;;;;;10.73;7.40;;;;;;;;;;6166943;23;20019;-94
2023/05/10 05:44:28;;;;;;;10.43;7.43;;;;;;;;;;6170018;23;20032;-95
2023/05/10 05:47:13;;;;;;;9.55;6.97;;;;;;;;;;6167516;23;20076;-93
2023/05/10 05:50:03;;;;;;;10.90;6.95;;;;;;;;;;6168838;23;20067;-95
2023/05/10 05:52:48;;;;;;;8.88;6.60;;;;;;;;;;6167350;23;20032;-94
2023/05/10 05:55:35;;;;;;;11.98;6.78;;;;;;;;;;6169095;23;20024;-94
2023/05/10 05:58:24;;;;;;;12.73;7.13;;;;;;;;;;6168341;23;20016;-94
2023/05/10 06:01:09;;;;;;;8.80;6.10;;;;;;;;;;6166233;23;20067;-94
2023/05/10 06:03:53;;;;;;;7.53;4.97;;;;;;;;;;6162686;23;20015;-92
2023/05/10 06:06:42;;;;;;;7.10;5.10;;;;;;;;;;6163589;23;20015;-93
2023/05/10 06:09:29;;;;;;;6.78;4.63;;;;;;;;;;6162901;23;20023;-93
2023/05/10 06:12:17;;;;;;;7.75;5.00;;;;;;;;;;6164023;23;20095;-93
2023/05/10 06:15:02;;;;;;;8.50;5.35;;;;;;;;;;6163181;23;20016;-95
2023/05/10 06:17:49;;;;;;;8.73;5.18;;;;;;;;;;6163091;23;20011;-93
2023/05/10 06:20:34;;;;;;;6.43;4.50;;;;;;;;;;6163610;23;20020;-95
2023/05/10 06:23:22;;;;;;;9.18;5.22;;;;;;;;;;6164118;23;20078;-95
2023/05/10 06:26:16;;;;;;;5.75;4.05;;;;;;;;;;6162869;23;20597;-92
2023/05/10 06:29:01;;;;;;;6.15;4.32;;;;;;;;;;6163173;23;20020;-94
2023/05/10 06:31:56;;;;;;;;;;;;;;;;;;;;;
2023/05/10 06:38:08;;;;;;;4.70;3.40;;;;;;;;;;6185166;23;20016;-94
2023/05/10 06:41:16;;;;;;;2.50;1.50;;;;;;;;;;6163268;23;20446;-93
2023/05/10 06:47:35;;;;;;;4.90;1.77;;;;;;;;;;6186995;23;20024;-95
2023/05/10 06:50:42;;;;;;;1.90;1.00;;;;;;;;;;6165933;23;20390;-93
2023/05/10 06:53:54;;;;;;;2.30;1.40;;;;;;;;;;6174876;23;20051;-95
2023/05/10 06:56:48;;;;;;;2.15;1.05;;;;;;;;;;6178178;23;20273;-95
2023/05/10 07:00:04;;;;;;;;;;;;;;;;;;;;;
2023/05/10 07:03:27;;;;;;;1.30;0.80;;;;;;;;;;6195163;23;20016;-94
2023/05/10 07:06:20;;;;;;;1.25;0.80;;;;;;;;;;6156790;23;20593;-95
2023/05/10 07:12:16;;;;;;;0.80;0.50;;;;;;;;;;6176405;23;20087;-93
2023/05/10 07:15:03;;;;;;;0.70;0.50;;;;;;;;;;6165252;23;20012;-92
2023/05/10 07:18:04;;;;;;;0.63;0.50;;;;;;;;;;6177008;23;20031;-95
2023/05/10 07:24:29;;;;;;;;;;;;;;;;;;;;;
2023/05/10 07:27:35;;;;;;;2.08;1.00;;;;;;;;;;6201762;23;20137;-95
2023/05/10 07:30:41;;;;;;;3.05;0.90;;;;;;;;;;6185576;23;20056;-94
2023/05/10 07:33:32;;;;;;;1.35;0.80;;;;;;;;;;6184429;23;20062;-88
2023/05/10 07:41:57;;;;;;;;;;;;;;;;;;;;;
2023/05/10 07:57:17;;;;;;;6.25;2.50;;;;;;;;;;6178363;22;20055;-95
2023/05/10 08:00:16;;;;;;;5.43;3.30;;;;;;;;;;6202022;23;20077;-95
2023/05/10 08:03:03;;;;;;;5.60;3.78;;;;;;;;;;6183147;23;20051;-93
2023/05/10 08:06:12;;;;;;;4.63;3.53;;;;;;;;;;6201932;23;20012;-94
2023/05/10 08:08:58;;;;;;;5.13;3.13;;;;;;;;;;6216213;23;20023;-93
2023/05/10 08:12:02;;;;;;;;;;;;;;;;;;;;;
2023/05/10 08:15:08;;;;;;;4.60;2.83;;;;;;;;;;6202795;23;20020;-94
2023/05/10 08:18:10;;;;;;;;;;;;;;;;;;;;;
2023/05/10 08:21:05;;;;;;;3.42;2.30;;;;;;;;;;6219339;23;20016;-95
2023/05/10 08:24:06;;;;;;;4.95;2.92;;;;;;;;;;6177557;23;20451;-94
2023/05/10 08:27:03;;;;;;;;;;;;;;;;;;;;;
2023/05/10 08:34:18;;;;;;;3.55;2.55;;;13.40;99.90;;;;;;6168318;23;20043;-94
2023/05/10 08:37:29;;;;;;;4.45;2.92;;;;;;;;;;6210134;23;20020;-93
2023/05/10 08:40:15;;;;;;;4.53;2.90;;;;;;;;;;6204949;23;20504;-94
2023/05/10 08:43:25;;;;;;;5.60;2.42;;;;;;;;;;6206784;23;20014;-95
2023/05/10 08:48:56;;;;;;;4.43;3.00;;;;;;;;;;6224012;22;20056;-94
2023/05/10 08:52:09;;;;;;;4.55;3.33;;;;;;;;;;6210571;23;20028;-94
2023/05/10 08:55:12;;;;;;;4.30;3.10;;;;;;;;;;6200391;23;20016;-92
2023/05/10 08:58:00;;;;;;;5.60;3.60;;;;;;;;;;6202732;23;20067;-94
2023/05/10 09:01:15;;;;;;;4.97;3.47;;;;;;;;;;6202220;23;20019;-95
2023/05/10 09:04:18;;;;;;;3.80;2.42;;;;;;;;;;6199657;23;20063;-96
2023/05/10 09:07:28;;;;;;;4.75;2.40;;;;;;;;;;6201046;23;20015;-94
2023/05/10 09:10:25;;;;;;;;;;;;;;;;;;;;;
2023/05/10 09:13:17;;;;;;;3.95;2.28;;;;;;;;;;6221673;23;20015;-95
2023/05/10 09:16:05;;;;;;;3.45;2.50;;;;;;;;;;6200315;23;20011;-95
2023/05/10 09:18:58;;;;;;;4.95;2.45;;;;;;;;;;6204321;23;20445;-95
2023/05/10 09:25:38;;;;;;;;;;;;;;;;;;;;;
2023/05/10 09:28:26;;;;;;;3.70;2.33;;;;;;;;;;6230191;22;20027;-92
2023/05/10 09:31:18;;;;;;;5.13;3.33;;;;;;;;;;6206141;23;20039;-92
2023/05/10 09:34:08;;;;;;;5.15;3.88;;;;;;;;;;6206598;23;20020;-93
2023/05/10 09:36:55;;;;;;;6.80;3.92;;;;;;;;;;6188503;23;20047;-92
2023/05/10 09:43:07;;;;;;;5.45;3.40;;;;;;;;;;6220226;23;20072;-93
2023/05/10 09:46:01;;;;;;;9.07;4.43;;;;;;;;;;6237103;23;20085;-92
2023/05/10 09:49:00;;;;;;;6.00;3.85;;;;;;;;;;6216552;23;20056;-94
2023/05/10 09:51:45;;;;;;;7.22;4.30;;;;;;;;;;6166628;22;20029;-94
2023/05/10 09:54:30;;;;;;;6.90;4.18;;;;;;;;;;6207051;23;20035;-93
2023/05/10 09:57:41;;;;;;;6.15;4.43;;;;;;;;;;6206676;23;20035;-93
2023/05/10 10:00:38;;;;;;;7.72;4.30;;;;;;;;;;6206880;23;19999;-94
2023/05/10 10:14:50;;;;;;;8.93;5.93;;;;;;;;;;6239351;22;20450;-91
2023/05/10 10:17:39;;;;;;;12.00;5.80;;;;;;;;;;6234813;22;20018;-94
2023/05/10 10:20:27;;;;;;;8.98;5.60;;;;;;;;;;6231724;23;20095;-93
2023/05/10 10:23:17;;;;;;;8.15;5.50;;;;;;;;;;6227461;23;20019;-94
2023/05/10 10:26:05;;;;;;;10.05;6.20;;;;;;;;;;6227554;23;20087;-93
2023/05/10 10:29:12;;;;;;;;;;;;;;;;;;;;;
2023/05/10 10:32:04;;;;;;;9.40;6.40;;;;;;;;;;6250443;23;20023;-95
2023/05/10 10:34:54;;;;;;;9.82;5.70;;;;;;;;;;6230043;23;20018;-94
2023/05/10 10:37:49;;;;;;;8.35;5.32;;;;;;;;;;6234014;23;20031;-94
2023/05/10 10:40:34;;;;;;;8.73;5.30;;;;;;;;;;6226678;23;20062;-91
2023/05/10 10:43:31;;;;;;;8.02;5.07;;;;;;;;;;6224288;23;20015;-92
2023/05/10 10:46:17;;;;;;;12.73;5.55;;;;;;;;;;6223526;23;20062;-94
2023/05/10 10:49:11;;;;;;;9.77;6.18;;;;;;;;;;6223545;23;20090;-93
2023/05/10 10:52:17;;;;;;;9.07;5.63;;;14.90;99.90;;;;;;6237176;23;20039;-93
2023/05/10 10:55:30;;;;;;;11.70;7.03;;;;;;;;;;6235025;23;20014;-93
2023/05/10 10:58:33;;;;;;;8.90;5.60;;;;;;;;;;6244150;23;20042;-94
2023/05/10 11:01:21;;;;;;;9.50;5.60;;;;;;;;;;6241138;22;20031;-94
2023/05/10 11:04:08;;;;;;;7.68;5.53;;;;;;;;;;6176408;23;20070;-91
2023/05/10 11:07:16;;;;;;;9.18;5.40;;;;;;;;;;6200961;23;20461;-94
2023/05/10 11:10:05;;;;;;;8.68;5.68;;;;;;;;;;6198066;23;20450;-91
2023/05/10 11:13:11;;;;;;;8.98;5.55;;;;;;;;;;6200886;23;20386;-95
2023/05/10 11:15:59;;;;;;;8.40;5.13;;;;;;;;;;6204646;23;20015;-92
2023/05/10 11:18:56;;;;;;;9.43;5.68;;;;;;;;;;6211163;23;20000;-93
2023/05/10 11:22:01;;;;;;;;;;;;;;;;;;;;;
2023/05/10 11:25:14;;;;;;;;;;;;;;;;;;;;;
2023/05/10 11:28:06;;;;;;;7.13;3.42;;;;;;;;;;6234112;23;20065;-94
2023/05/10 11:36:37;;;;;;;5.65;3.10;;;;;;;;;;6168959;23;20099;-96
2023/05/10 11:45:10;;;;;;;6.63;2.50;;;;;;;;;;6197075;22;20089;-95
2023/05/10 11:48:23;;;;;;;5.57;2.13;;;;;;;;;;6175913;23;20019;-94
2023/05/10 11:51:04;;;;;;;8.73;2.55;;;;;;;;;;6191662;23;20020;-93
2023/05/10 11:53:52;;;;;;;5.18;3.22;;;;;;;;;;6171243;23;20040;-93
2023/05/10 11:56:47;;;;;;;6.13;4.57;;;;;;;;;;6173325;23;20016;-95
2023/05/10 12:02:45;;;;;;;7.57;4.40;;;;;;;;;;6175256;23;20051;-95
2023/05/10 12:05:33;;;;;;;6.47;4.97;;;;;;;;;;6160895;23;20055;-93
2023/05/10 12:08:21;;;;;;;8.30;5.75;;;;;;;;;;6168182;22;20032;-92
2023/05/10 12:11:17;;;;;;;7.28;5.38;;;;;;;;;;6145579;23;20067;-95
2023/05/10 12:14:37;;;;;;;;;;;;;;;;;;;;;
2023/05/10 12:17:27;;;;;;;6.88;5.05;;;;;;;;;;6168079;23;20017;-93
2023/05/10 12:20:16;;;;;;;9.30;5.53;;;;;;;;;;6145699;23;20019;-93
2023/05/10 12:23:02;;;;;;;7.35;5.15;;;;;;;;;;6140461;23;20401;-93
2023/05/10 12:26:01;;;;;;;11.00;5.78;;;;;;;;;;6140348;23;20012;-95
2023/05/10 12:28:54;;;;;;;7.88;5.78;;;;;;;;;;6125491;23;20024;-94
2023/05/10 12:32:13;;;;;;;;;;;;;;;;;;;;;
2023/05/10 12:38:29;;;;;;;10.10;6.55;;;;;;;;;;6138328;23;20340;-95
2023/05/10 12:41:17;;;;;;;9.18;6.32;;;;;;;;;;6210476;23;20038;-93
2023/05/10 12:44:12;;;;;;;9.23;6.20;;;;;;;;;;6200907;23;20054;-91
2023/05/10 12:47:00;;;;;;;9.98;6.65;;;;;;;;;;6179190;23;20059;-93
2023/05/10 12:49:54;;;;;;;11.98;8.10;;;;;;;;;;6138951;23;20030;-91
2023/05/10 12:52:41;;;;;;;11.73;7.47;;;;;;;;;;6157408;23;20017;-93
2023/05/10 12:55:26;;;;;;;9.70;6.60;;;;;;;;;;6137607;23;20013;-94
2023/05/10 12:58:11;;;;;;;8.90;6.43;;;;;;;;;;6158572;23;20144;-93
2023/05/10 13:00:58;;;;;;;10.30;6.43;;;;;;;;;;6141413;23;20105;-95
2023/05/10 13:03:45;;;;;;;7.70;5.60;;;;;;;;;;6159357;23;20064;-92
2023/05/10 13:06:35;;;;;;;8.52;5.95;;;;;;;;;;6142031;23;20004;-94
2023/05/10 13:09:28;;;;;;;9.52;5.88;;;;;;;;;;6152417;23;20049;-94
2023/05/10 13:14:59;;;;;;;10.18;6.78;;;;;;;;;;6165055;23;20076;-89
2023/05/10 13:20:20;;;;;;;11.90;7.00;;;;;;;;;;6229047;22;20036;-93
2023/05/10 13:23:07;;;;;;;8.90;6.18;;;;;;;;;;6211319;23;20022;-95
2023/05/10 13:30:01;;;;;;;;;;;;;;;;;;;;;
2023/05/10 13:33:23;;;;;;;11.52;7.30;;;;;;;;;;6220065;23;20235;-93
2023/05/10 13:36:11;;;;;;;10.40;6.50;;;;;;;;;;6197329;23;20020;-93
2023/05/10 13:38:55;;;;;;;10.10;6.55;;;;;;;;;;6203232;23;20028;-90
2023/05/10 13:41:43;;;;;;;11.13;6.47;;;;;;;;;;6224104;23;20016;-93
2023/05/10 13:44:33;;;;;;;8.30;6.13;;;;;;;;;;6173013;23;20019;-93
2023/05/10 13:47:18;;;;;;;8.15;6.50;;;;;;;;;;6196006;23;20052;-93
2023/05/10 13:50:05;;;;;;;11.45;6.43;;;;;;;;;;6208462;23;20151;-93
2023/05/10 13:52:53;;;;;;;8.73;6.45;;;;;;;;;;6181119;23;20019;-92
2023/05/10 13:55:48;;;;;;;9.95;6.45;;;;;;;;;;6185336;23;20024;-93
2023/05/10 14:01:26;;;;;;;8.43;5.60;;;;;;;;;;6176926;22;20020;-92
2023/05/10 14:04:32;;;;;;;9.40;5.55;;;;;;;;;;6185657;23;20024;-94
2023/05/10 14:12:36;;;;;;;7.70;5.38;;;;;;;;;;6224284;22;20021;-93
2023/05/10 14:15:31;;;;;;;6.93;4.22;;;;;;;;;;6194241;23;20035;-92
2023/05/10 14:18:24;;;;;;;7.53;4.25;;;;;;;;;;6185205;22;20001;-94
2023/05/10 14:23:50;;;;;;;10.02;5.15;;;;;;;;;;6228558;22;20032;-93
2023/05/10 14:26:36;;;;;;;7.32;4.78;;;;;;;;;;6216287;23;20024;-93
2023/05/10 14:29:29;;;;;;;7.20;5.03;;;;;;;;;;6217081;23;20012;-93
2023/05/10 14:32:37;;;;;;;;;;;;;;;;;;;;;
2023/05/10 14:35:22;;;;;;;7.80;4.72;;;;;;;;;;6171467;23;20019;-92
2023/05/10 14:38:09;;;;;;;8.20;5.60;;;;;;;;;;6191256;23;20016;-93
2023/05/10 14:40:54;;;;;;;9.23;5.72;;;;;;;;;;6166384;23;20477;-94
2023/05/10 14:43:44;;;;;;;9.05;5.50;;;;;;;;;;6196561;23;20040;-93
2023/05/10 14:46:29;;;;;;;8.43;5.93;;;;;;;;;;6173313;23;20016;-93
2023/05/10 14:49:22;;;;;;;11.05;5.35;;;;;;;;;;6196671;23;20016;-92
2023/05/10 14:52:11;;;;;;;10.38;6.47;;;;;;;;;;6176617;23;20527;-93
2023/05/10 14:55:05;;;;;;;9.02;5.95;;;;;;;;;;6182646;23;20510;-94
2023/05/10 14:57:50;;;;;;;8.25;6.00;;;;;;;;;;6180013;23;20055;-94
2023/05/10 15:00:35;;;;;;;9.43;6.22;;;;;;;;;;6165876;23;20039;-93
2023/05/10 15:03:19;;;;;;;11.65;6.25;;;;;;;;;;6189327;23;20060;-94
2023/05/10 15:06:04;;;;;;;9.85;6.40;;;;;;;;;;6184966;23;20016;-93
2023/05/10 15:08:49;;;;;;;9.77;5.85;;;;;;;;;;6170209;23;20016;-90
2023/05/10 15:12:18;;;;;;;7.60;5.55;;;;;;;;;;6181659;23;20076;-92
2023/05/10 15:14:49;;;;;;;8.13;4.95;;;;;;;;;;6202890;23;20007;-94
2023/05/10 15:17:37;;;;;;;6.07;3.38;;;;;;;;;;6174816;23;20040;-94
2023/05/10 15:20:24;;;;;;;4.05;2.67;;;;;;;;;;6175521;23;20472;-94
2023/05/10 15:23:09;;;;;;;5.97;2.55;;;;;;;;;;6170851;23;20096;-93
2023/05/10 15:25:55;;;;;;;6.75;3.17;;;;;;;;;;6172824;23;20375;-90
2023/05/10 15:28:40;;;;;;;5.50;2.85;;;;;;;;;;6196208;23;20462;-92
2023/05/10 15:34:04;;;;;;;5.32;2.55;;;;;;;;;;6193861;22;20169;-91
2023/05/10 15:36:49;;;;;;;4.10;2.75;;;;;;;;;;6181911;23;20040;-92
2023/05/10 15:39:36;;;;;;;7.07;3.28;;;;;;;;;;6171283;23;20016;-94
2023/05/10 15:42:23;;;;;;;9.02;3.95;;;;;;;;;;6144535;23;20016;-93
2023/05/10 15:45:08;;;;;;;7.95;4.03;;;;;;;;;;6166412;23;20537;-91
2023/05/10 15:47:53;;;;;;;5.90;4.05;;;;;;;;;;6201534;23;20020;-92
2023/05/10 15:50:39;;;;;;;8.45;3.88;;;;;;;;;;6164690;23;20028;-94
2023/05/10 15:53:25;;;;;;;6.80;4.65;;;;;;;;;;6167711;23;20024;-91
2023/05/10 15:56:10;;;;;;;7.15;4.47;;;;;;;;;;6193703;23;20071;-92
2023/05/10 15:58:54;;;;;;;7.90;4.50;;;;;;;;;;6161075;23;20024;-91
2023/05/10 16:01:39;;;;;;;8.48;4.40;;;;;;;;;;6192026;23;20020;-93
2023/05/10 16:04:24;;;;;;;6.97;4.15;;;;;;;;;;6195963;23;20757;-91
2023/05/10 16:07:09;;;;;;;12.32;4.30;;;;;;;;;;6183287;23;20016;-94
2023/05/10 16:09:53;;;;;;;7.15;4.57;;;;;;;;;;6182820;23;20064;-93
2023/05/10 16:12:38;;;;;;;7.45;4.55;;;;;;;;;;6182553;23;20024;-91
2023/05/10 16:15:23;;;;;;;7.75;5.15;;;;;;;;;;6184864;23;20012;-93
2023/05/10 16:18:08;;;;;;;10.35;5.60;;;;;;;;;;6179883;23;20353;-89
2023/05/10 16:20:53;;;;;;;7.50;4.97;;;;;;;;;;6177082;23;20054;-93
2023/05/10 16:23:38;;;;;;;10.27;6.30;;;;;;;;;;6178669;23;20101;-90
2023/05/10 16:26:23;;;;;;;12.25;6.75;;;;;;;;;;6181370;23;20334;-91
2023/05/10 16:29:08;;;;;;;11.05;7.65;;;;;;;;;;6181516;23;20017;-89
2023/05/10 16:31:53;;;;;;;12.77;6.60;;;;;;;;;;6181983;23;20024;-88
2023/05/10 16:34:38;;;;;;;10.43;6.82;;;;;;;;;;6163520;23;20025;-92
2023/05/10 16:37:22;;;;;;;11.52;6.85;;;;;;;;;;6183412;23;20085;-92
2023/05/10 16:40:07;;;;;;;9.90;6.60;;;;;;;;;;6185317;23;20429;-91
2023/05/10 16:42:52;;;;;;;9.10;6.10;;;;;;;;;;6184133;23;20052;-91
2023/05/10 16:45:37;;;;;;;7.82;5.93;;;;;;;;;;6184236;23;20071;-92
2023/05/10 16:48:22;;;;;;;10.50;6.72;;;;;;;;;;6183652;23;20466;-89
2023/05/10 16:51:07;;;;;;;11.80;6.18;;;;;;;;;;6184586;23;20019;-90
2023/05/10 16:53:53;;;;;;;9.80;6.30;;;;;;;;;;6185428;23;20124;-94
2023/05/10 16:56:37;;;;;;;9.45;5.80;;;;;;;;;;6163645;23;20073;-92
2023/05/10 16:59:22;;;;;;;9.88;6.25;;;;;;;;;;6162706;23;20071;-91
2023/05/10 17:02:06;;;;;;;9.15;6.65;;;;;;;;;;6183740;23;20095;-93
2023/05/10 17:04:53;;;;;;;9.35;5.93;;;;;;;;;;6184500;23;20020;-93
2023/05/10 17:07:38;;;;;;;10.63;6.35;;;;;;;;;;6184824;23;20020;-89
2023/05/10 17:10:23;;;;;;;8.68;5.60;;;;;;;;;;6183767;23;20465;-88
2023/05/10 17:13:07;;;;;;;10.07;6.00;;;;;;;;;;6163688;23;20020;-92
2023/05/10 17:15:55;;;;;;;10.32;5.68;;;;;;;;;;6185773;23;20493;-92
2023/05/10 17:18:41;;;;;;;8.32;5.72;;;;;;;;;;6185155;23;20011;-88
2023/05/10 17:21:26;;;;;;;8.30;5.78;;;;;;;;;;6186074;23;20020;-90
2023/05/10 17:24:10;;;;;;;9.23;6.70;;;;;;;;;;6192612;23;20087;-91
2023/05/10 17:26:56;;;;;;;13.70;8.85;;;;;;;;;;6196144;23;20023;-90
2023/05/10 17:29:43;;;;;;;15.07;8.88;;;;;;;;;;6196061;23;20024;-90
2023/05/10 17:32:28;;;;;;;12.40;9.77;;;;;;;;;;6196821;23;20135;-90
2023/05/10 17:35:12;;;;;;;11.85;8.48;;;;;;;;;;6195227;23;20072;-90
2023/05/10 17:37:57;;;;;;;16.65;9.73;;;;;;;;;;6184978;23;20068;-91
2023/05/10 17:40:42;;;;;;;15.63;10.00;;;;;;;;;;6183665;23;20343;-89
2023/05/10 17:43:26;;;;;;;14.18;9.38;;;;;;;;;;6183012;23;20094;-90
2023/05/10 17:46:11;;;;;;;11.75;8.90;;;;;;;;;;6183325;23;20040;-91
2023/05/10 17:48:56;;;;;;;14.20;10.05;;;;;;;;;;6184333;23;20016;-87
2023/05/10 17:51:42;;;;;;;12.27;9.88;;;;;;;;;;6183043;23;20064;-93
2023/05/10 17:54:27;;;;;;;14.88;9.50;;;;;;;;;;6181343;23;20711;-92
2023/05/10 17:57:12;;;;;;;12.95;9.48;;;;;;;;;;6160965;23;20020;-92
2023/05/10 17:59:56;;;;;;;12.68;9.43;;;;;;;;;;6160410;23;20104;-91
2023/05/10 18:02:41;;;;;;;14.52;9.68;;;;;;;;;;6161340;23;20024;-93
2023/05/10 18:05:27;;;;;;;11.65;9.15;;;;;;;;;;6161571;23;20051;-93
2023/05/10 18:08:12;;;;;;;14.50;8.85;;;;;;;;;;6160971;23;20012;-91
2023/05/10 18:10:59;;;;;;;11.55;7.50;;;;;;;;;;6160619;23;20136;-93
2023/05/10 18:13:48;;;;;;;12.60;7.63;;;;;;;;;;6162475;23;20472;-92
2023/05/10 18:16:33;;;;;;;8.90;6.55;;;;;;;;;;6157600;23;20016;-93
2023/05/10 18:19:18;;;;;;;8.48;5.18;;;;;;;;;;6157986;23;20040;-92
2023/05/10 18:22:03;;;;;;;8.13;5.35;;;;;;;;;;6160977;23;20139;-93
2023/05/10 18:24:48;;;;;;;7.82;5.25;;;;;;;;;;6181949;23;20020;-93
2023/05/10 18:27:33;;;;;;;8.13;5.10;;;;;;;;;;6156954;23;20394;-91
2023/05/10 18:30:18;;;;;;;6.88;4.97;;;;;;;;;;6181926;23;20028;-92
2023/05/10 18:33:02;;;;;;;6.50;3.72;;;;;;;;;;6161596;23;20043;-91
2023/05/10 18:35:47;;;;;;;16.88;4.65;;;;;;;;;;6161660;23;20020;-91
2023/05/10 18:38:32;;;;;;;7.22;5.90;;;;;;;;;;6182073;23;20087;-90
2023/05/10 18:41:25;;;;;;;7.57;5.95;;;;;;;;;;6182746;23;20067;-93
2023/05/10 18:44:10;;;;;;;8.88;6.00;;;;;;;;;;6163751;23;20055;-91
2023/05/10 18:46:54;;;;;;;7.75;5.93;;;;;;;;;;6159548;23;20458;-94
2023/05/10 18:49:39;;;;;;;10.05;6.13;;;;;;;;;;6168775;23;20062;-93
2023/05/10 18:52:23;;;;;;;8.90;6.85;;;;;;;;;;6162534;23;20048;-92
2023/05/10 18:55:08;;;;;;;9.60;6.43;;;;;;;;;;6154032;23;20076;-94
2023/05/10 18:57:55;;;;;;;8.60;6.35;;;;;;;;;;6153890;23;20020;-93
2023/05/10 19:00:41;;;;;;;8.60;6.35;;;;;;;;;;6155909;23;20020;-95
2023/05/10 19:03:25;;;;;;;8.18;6.43;;;;;;;;;;6132542;23;20108;-93
2023/05/10 19:06:10;;;;;;;8.40;6.65;;;;;;;;;;6154693;23;20087;-94
2023/05/10 19:08:55;;;;;;;8.93;6.90;;;;;;;;;;6153839;23;20017;-94
2023/05/10 19:11:42;;;;;;;8.80;6.30;;;;;;;;;;6153438;23;20454;-95
2023/05/10 19:14:28;;;;;;;10.88;7.80;;;;;;;;;;6154254;23;20064;-94
2023/05/10 19:17:12;;;;;;;10.63;7.20;;;;;;;;;;6155195;23;20447;-93
2023/05/10 19:19:59;;;;;;;11.55;7.50;;;;;;;;;;6154059;23;20067;-93
2023/05/10 19:22:44;;;;;;;8.57;6.38;;;;;;;;;;6154729;23;20383;-93
2023/05/10 19:25:28;;;;;;;10.63;7.05;;;;;;;;;;6150832;23;20012;-92
2023/05/10 19:28:13;;;;;;;9.90;7.22;;;;;;;;;;6149897;23;20160;-94
2023/05/10 19:30:58;;;;;;;11.25;7.97;;;;;;;;;;6146779;23;20356;-94
2023/05/10 19:33:43;;;;;;;9.52;6.95;;;;;;;;;;6147793;23;20076;-91
2023/05/10 19:36:27;;;;;;;10.05;7.05;;;;;;;;;;6146239;23;20035;-93
2023/05/10 19:39:12;;;;;;;10.32;7.60;;;;;;;;;;6148152;23;20518;-91
2023/05/10 19:41:58;;;;;;;14.30;7.78;;;;;;;;;;6153035;23;20494;-93
2023/05/10 19:44:43;;;;;;;11.60;8.57;;;;;;;;;;6146225;23;20144;-92
2023/05/10 19:47:27;;;;;;;12.77;8.45;;;;;;;;;;6149034;23;20389;-92
2023/05/10 19:50:32;;;;;;;11.50;8.52;;;;;;;;;;6148966;23;20027;-89
2023/05/10 19:53:43;;;;;;;14.10;8.10;;;;;;;;;;6151014;23;20060;-90
2023/05/10 19:56:30;;;;;;;12.85;8.40;;;;;;;;;;6177678;23;20028;-91
2023/05/10 19:59:15;;;;;;;11.73;8.48;;;;;;;;;;6157847;23;20051;-94
2023/05/10 20:02:00;;;;;;;11.57;9.13;;;;;;;;;;6160022;23;20512;-91
2023/05/10 20:04:47;;;;;;;11.25;8.05;;;;;;;;;;6156629;23;20646;-93
2023/05/10 20:07:31;;;;;;;11.38;7.38;;;;;;;;;;6158654;23;20537;-90
2023/05/10 20:10:17;;;;;;;11.48;8.57;;;;;;;;;;6181522;23;20044;-91
2023/05/10 20:13:01;;;;;;;12.55;8.02;;;;;;;;;;6159464;23;20062;-90
2023/05/10 20:15:46;;;;;;;10.27;8.02;;;;;;;;;;6158315;23;20016;-92
2023/05/10 20:18:31;;;;;;;15.15;8.82;;;;;;;;;;6162586;23;20020;-91
2023/05/10 20:21:15;;;;;;;12.88;9.05;;;;;;;;;;6161978;23;20020;-91